Ralph, South Dakota
Current Conditions -  °F | °C
As of 4:53 AM on Friday 19 Dec 2014 (Local Time) from KHEI Reporting Station
Overcast Overcast  
Wind Chill: 19°   Ceiling: 7000
Heat Index: 25°   Visibility: 10mi
Dew Point: 21°   Wind: 5mph
Humidity: 85%   Direction: 280°W
Pressure: 29.93"   Gusts: NA
Location:  45.77°N, 103.07°W
Report Text: KHEI 191153Z AUTO 28004KT 10SM OVC070 M04/M06 A2993 RMK AO2 SLP170 I6000 T10391061 11022 21067 56004
Loading
Personal Weather Stations






























Interactive Weather Map New forecast layout! Learn more

10-Day Weather Forecast

Advertisements
Track Severe Weather on mobile